الصفحة الرئيسية
METAR-TAF:

METAR-TAF

مطار :

مطار دبلن الدولي

دبلن, جزيرة أيرلندا

دائرة عرض: 53-26N, خط طول: 006-15W, ارتفاع: 68 متر

مراقبة الطقس الحالي

تاريخ ووقت الإصدار 15 دقيقة قبل الساعة 22:00UTC
ريح 8 عقدة من الشمال الغربي
درجة الحرارة 3°درجة مئوية
الرطوبة 87%
ضغط 1028 hPa
الرؤية 10 كم أو أكثر
غيوم قليلة على ارتفاع 2000 قدم

METAR: EIDW 172200Z 31008KT 9999 FEW020 03/01 Q1028 NOSIG

زمن: 23:15 (22:15 UTC)

توقعات

تاريخ ووقت الإصدار 5ساعات و 15 دقيقة قبل الساعة 17:00UTC
التوقعات صالحة من17 الساعة 18 UTC إلى 18 الساعة 18 UTC
ريح 6 عقدة من الشمال الغربي
الرؤية 10 كم أو أكثر
غيوم قليلة على ارتفاع 2400 قدم
غيوم مفككة على ارتفاع 4000 قدم
نظرية الاحتمالات 30% :
مؤقت
من 18 الساعة 03 UTC إلى 18 الساعة 08 UTC
ريح 4 عقدة من الغرب
الرؤية: 3000 متر
غشاء

TAF: EIDW 171700Z 1718/1818 31006KT 9999 FEW024 BKN040 PROB30 TEMPO 1803/1808 27004KT 3000 BR

أرصاد الطقس والتوقعات من أكثر من 4000 مطار (تقارير الطقس للمطار METAR والتنبؤ بالطقس بالمطارTAF).

المحطات المتاحة هي النقط الصفراء والحمراء على الخريطة.

حرك المؤشر فوق النقطة لمعرفة اسم المحطة.

ثم انقر لمعرفة أرصاد وتوقعات الطقس.

لتغيير الخارطة: اضغط على الأزرار الخضراء مع رمز الصليب الأسود للتكبير. على الزر الأخضر مع شرطة للتصغير، أو على الأسهم الخضراء للخرائط المجاورة.


METAR-TAF: